Time;durP1;ratioP1;P1;durP2;ratioP2;P2;SDS_P1;SDS_P2;PMS_P1;PMS_P2;Temp;Humidity;BMP_temperature;BMP_pressure;BME280_temperature;BME280_humidity;BME280_pressure;Samples;Min_cycle;Max_cycle;Signal;HPM_P1;HPM_P2
2022/12/30 00:01:54;;;;;;;1999.90;999.90;;;;;;;7.73;100.00;98124.84;5079682;28;20044;-85
2022/12/30 00:04:20;;;;;;;1999.90;999.90;;;;;;;7.68;100.00;98119.38;5077033;28;20482;-85
2022/12/30 00:06:47;;;;;;;1999.90;999.90;;;;;;;7.74;100.00;98126.47;5083455;28;20044;-89
2022/12/30 00:09:12;;;;;;;1999.90;999.90;;;;;;;7.74;100.00;98110.13;5074185;28;20097;-83
2022/12/30 00:11:38;;;;;;;1999.90;999.90;;;;;;;7.72;100.00;98120.50;5091998;28;20479;-83
2022/12/30 00:34:25;;;;;;;1999.90;999.90;;;;;;;7.46;100.00;98104.16;5076074;28;20055;-82
2022/12/30 00:36:50;;;;;;;1999.90;999.90;;;;;;;7.35;100.00;98088.09;5074950;28;20181;-83
2022/12/30 00:39:17;;;;;;;1999.90;999.90;;;;;;;7.34;100.00;98094.63;5081682;28;20066;-86
2022/12/30 00:44:26;;;;;;;1999.90;999.90;;;;;;;7.46;100.00;98093.28;5083003;28;20066;-86
2022/12/30 00:46:52;;;;;;;1999.90;999.90;;;;;;;7.54;100.00;98098.19;5081563;28;20064;-86
2022/12/30 00:57:29;;;;;;;1999.90;999.90;;;;;;;7.63;100.00;98094.91;5082528;28;20059;-88
2022/12/30 00:59:55;;;;;;;1999.90;999.90;;;;;;;7.74;100.00;98108.22;5089461;28;20012;-85
2022/12/30 01:02:21;;;;;;;1999.90;999.90;;;;;;;7.77;100.00;98098.72;5090618;28;20024;-85
2022/12/30 01:04:46;;;;;;;1999.90;999.90;;;;;;;7.86;100.00;98094.34;5084921;28;20020;-86
2022/12/30 01:07:12;;;;;;;1999.90;999.90;;;;;;;7.94;100.00;98096.50;5086816;28;20131;-81
2022/12/30 01:09:37;;;;;;;1999.90;999.90;;;;;;;8.05;100.00;98098.13;5087102;28;20025;-83
2022/12/30 01:12:09;;;;;;;1999.90;999.90;;;;;;;8.19;100.00;98101.91;5086091;28;20054;-82
2022/12/30 01:14:40;;;;;;;1999.90;999.90;;;;;;;8.27;100.00;98095.88;5087300;28;20049;-84
2022/12/30 01:17:07;;;;;;;1999.90;999.90;;;;;;;8.35;100.00;98091.81;5087613;28;20103;-83
2022/12/30 01:19:33;;;;;;;1999.90;999.90;;;;;;;8.43;100.00;98105.69;5086601;28;20710;-86
2022/12/30 01:21:59;;;;;;;1999.90;999.90;;;;;;;8.41;100.00;98101.59;5091083;28;20042;-85
2022/12/30 01:24:24;;;;;;;1999.90;999.90;;;;;;;8.46;100.00;98107.03;5090945;28;20029;-83
2022/12/30 01:26:50;;;;;;;1999.90;999.90;;;;;;;8.58;100.00;98113.81;5093311;28;20027;-86
2022/12/30 01:29:36;;;;;;;1999.90;999.90;;;;;;;8.61;100.00;98113.25;5090559;28;20032;-78
2022/12/30 01:32:04;;;;;;;1999.90;999.90;;;;;;;8.49;100.00;98104.56;5088574;28;20043;-81
2022/12/30 01:34:29;;;;;;;1999.90;999.90;;;;;;;8.41;100.00;98096.97;5085992;28;20024;-84
2022/12/30 01:36:55;;;;;;;1999.90;999.90;;;;;;;8.47;100.00;98101.31;5087706;28;20092;-83
2022/12/30 01:39:20;;;;;;;1999.90;999.90;;;;;;;8.47;100.00;98092.31;5090487;28;20009;-88
2022/12/30 01:41:46;;;;;;;1999.90;999.90;;;;;;;8.55;100.00;98092.53;5085372;28;20025;-84
2022/12/30 01:44:49;;;;;;;1999.90;999.90;;;;;;;8.60;100.00;98094.44;5086033;28;20035;-81
2022/12/30 01:47:22;;;;;;;1999.90;999.90;;;;;;;8.64;100.00;98090.09;5086833;28;20063;-85
2022/12/30 01:49:52;;;;;;;1999.90;999.90;;;;;;;8.65;100.00;98101.78;5092500;28;20070;-83
2022/12/30 01:52:23;;;;;;;1999.90;999.90;;;;;;;8.67;100.00;98105.06;5091681;28;20028;-83
2022/12/30 01:54:49;;;;;;;1999.90;999.90;;;;;;;8.67;100.00;98099.59;5081846;28;20016;-82
2022/12/30 01:57:16;;;;;;;1999.90;999.90;;;;;;;8.72;100.00;98100.38;5063313;28;20084;-84
2022/12/30 01:59:43;;;;;;;1999.90;999.90;;;;;;;8.70;100.00;98091.69;5069001;28;20025;-83
2022/12/30 02:02:09;;;;;;;1999.90;999.90;;;;;;;8.64;100.00;98084.63;5065131;28;20147;-84
2022/12/30 02:04:35;;;;;;;1999.90;999.90;;;;;;;8.73;100.00;98099.31;5063218;28;20024;-88
2022/12/30 02:07:11;;;;;;;1999.90;999.90;;;;;;;8.77;100.00;98100.34;5058596;28;20053;-85
2022/12/30 02:09:36;;;;;;;1999.90;999.90;;;;;;;8.70;100.00;98094.41;5072973;28;20033;-86
2022/12/30 02:12:04;;;;;;;1999.90;999.90;;;;;;;8.59;100.00;98101.81;5087488;28;20028;-81
2022/12/30 02:14:32;;;;;;;1999.90;999.90;;;;;;;8.47;100.00;98092.31;5088041;28;20029;-86
2022/12/30 02:17:19;;;;;;;1999.90;999.90;;;;;;;8.29;100.00;98090.19;5091325;28;20001;-83
2022/12/30 02:20:17;;;;;;;1999.90;999.90;;;;;;;8.21;100.00;98090.72;5083863;28;20109;-86
2022/12/30 02:23:37;;;;;;;1999.90;999.90;;;;;;;8.08;100.00;98092.94;5078905;28;20035;-85
2022/12/30 02:26:17;;;;;;;1999.90;999.90;;;;;;;8.05;100.00;98092.66;5058795;28;20509;-86
2022/12/30 02:29:37;;;;;;;1999.90;999.90;;;;;;;8.06;100.00;98091.59;5081742;28;20028;-84
2022/12/30 02:32:14;;;;;;;1999.90;999.90;;;;;;;8.03;100.00;98092.13;5060873;28;20040;-86
2022/12/30 02:34:59;;;;;;;1999.90;999.90;;;;;;;8.02;100.00;98087.75;5077789;28;20119;-87
2022/12/30 02:37:59;;;;;;;1999.90;999.90;;;;;;;8.03;100.00;98089.41;5078864;28;20037;-86
2022/12/30 02:44:36;;;;;;;1999.90;999.90;;;;;;;8.01;100.00;98094.31;5081349;28;20052;-84
2022/12/30 02:46:09;;;;;;;1999.90;999.90;;;;;;;7.88;100.00;98081.28;5081578;28;20078;-82
2022/12/30 02:48:39;;;;;;;1999.90;999.90;;;;;;;7.93;100.00;98086.69;5079673;28;20489;-83
2022/12/30 02:53:49;;;;;;;1999.90;999.90;;;;;;;7.85;100.00;98081.81;5074553;28;20039;-85
2022/12/30 02:56:15;;;;;;;1999.90;999.90;;;;;;;7.91;100.00;98087.00;5082655;28;20037;-86
2022/12/30 02:58:48;;;;;;;1999.90;999.90;;;;;;;7.90;100.00;98089.97;5085663;28;20012;-81
2022/12/30 03:04:44;;;;;;;1999.90;999.90;;;;;;;7.96;100.00;98092.41;5086865;28;20065;-83
2022/12/30 03:07:14;;;;;;;1999.90;999.90;;;;;;;7.88;100.00;98097.63;5086209;28;20037;-84
2022/12/30 03:13:11;;;;;;;1999.90;999.90;;;;;;;7.86;100.00;98089.69;5084554;28;20151;-84
2022/12/30 03:16:06;;;;;;;1999.90;999.90;;;;;;;7.88;100.00;98094.88;5081514;28;20482;-85
2022/12/30 03:18:33;;;;;;;1999.90;999.90;;;;;;;7.87;100.00;98085.06;5078180;28;20036;-83
2022/12/30 03:20:59;;;;;;;1999.90;999.90;;;;;;;7.82;100.00;98088.63;5076407;28;20040;-82
2022/12/30 03:28:59;;;;;;;1999.90;999.90;;;;;;;7.75;100.00;98081.81;5084490;28;20097;-83
2022/12/30 03:31:26;;;;;;;1999.90;999.90;;;;;;;7.83;100.00;98086.75;5084856;28;20028;-88
2022/12/30 03:33:51;;;;;;;1999.90;999.90;;;;;;;7.82;100.00;98085.91;5083099;28;20115;-83
2022/12/30 03:36:23;;;;;;;1999.90;999.90;;;;;;;7.83;100.00;98084.00;5083674;28;20032;-83
2022/12/30 03:38:55;;;;;;;1999.90;999.90;;;;;;;7.87;100.00;98085.06;5084008;28;20055;-81
2022/12/30 03:41:22;;;;;;;1999.90;999.90;;;;;;;7.86;100.00;98083.47;5081923;28;20028;-84
2022/12/30 03:43:48;;;;;;;1999.90;999.90;;;;;;;7.82;100.00;98088.63;5081089;28;20017;-83
2022/12/30 03:46:14;;;;;;;1999.90;999.90;;;;;;;7.90;100.00;98084.53;5082281;28;20028;-83
2022/12/30 03:48:39;;;;;;;1999.90;999.90;;;;;;;7.87;100.00;98085.06;5082671;28;20017;-87
2022/12/30 03:51:05;;;;;;;1999.90;999.90;;;;;;;7.97;100.00;98093.25;5082730;28;20035;-85
2022/12/30 03:53:30;;;;;;;1999.90;999.90;;;;;;;7.91;100.00;98094.34;5082929;28;20067;-84
2022/12/30 03:55:55;;;;;;;1999.90;999.90;;;;;;;7.94;100.00;98091.06;5081684;28;20025;-83
2022/12/30 03:58:20;;;;;;;1999.90;999.90;;;;;;;7.83;100.00;98095.69;5082503;28;20033;-84
2022/12/30 04:00:46;;;;;;;1999.90;999.90;;;;;;;7.84;100.00;98099.25;5083563;28;20020;-84
2022/12/30 04:03:11;;;;;;;1999.90;999.90;;;;;;;7.82;100.00;98093.25;5086026;28;20047;-84
2022/12/30 04:05:36;;;;;;;1999.90;999.90;;;;;;;7.85;100.00;98088.09;5089145;28;20020;-80
2022/12/30 04:08:02;;;;;;;1999.90;999.90;;;;;;;7.92;100.00;98087.81;5082802;28;20055;-85
2022/12/30 04:10:27;;;;;;;1999.90;999.90;;;;;;;7.88;100.00;98090.25;5084220;28;20102;-84
2022/12/30 04:12:52;;;;;;;1999.90;999.90;;;;;;;7.83;100.00;98082.09;5083438;28;20064;-85
2022/12/30 04:15:18;;;;;;;1999.90;999.90;;;;;;;7.89;100.00;98083.69;5084839;28;20025;-80
2022/12/30 04:17:43;;;;;;;1999.90;999.90;;;;;;;7.89;100.00;98088.34;5084668;28;20027;-82
2022/12/30 04:20:09;;;;;;;1999.90;999.90;;;;;;;7.94;100.00;98077.44;5084010;28;20024;-82
2022/12/30 04:22:34;;;;;;;1999.90;999.90;;;;;;;7.96;100.00;98077.97;5083165;28;20020;-86
2022/12/30 04:24:59;;;;;;;1999.90;999.90;;;;;;;8.07;100.00;98079.59;5084345;28;20583;-84
2022/12/30 04:27:24;;;;;;;1999.90;999.90;;;;;;;8.13;100.00;98085.84;5081260;28;20029;-82
2022/12/30 04:29:50;;;;;;;1999.90;999.90;;;;;;;8.23;100.00;98081.19;5082462;28;20031;-85
2022/12/30 04:32:15;;;;;;;1999.90;999.90;;;;;;;8.39;100.00;98080.09;5078737;28;20129;-85
2022/12/30 04:34:40;;;;;;;1999.90;999.90;;;;;;;8.44;100.00;98085.50;5076718;28;20489;-83
2022/12/30 04:37:06;;;;;;;1999.90;999.90;;;;;;;8.47;100.00;98086.88;5079726;28;20032;-85
2022/12/30 04:39:31;;;;;;;1999.90;999.90;;;;;;;8.55;100.00;98089.81;5081595;28;20028;-85
2022/12/30 04:41:56;;;;;;;1999.90;999.90;;;;;;;8.68;100.00;98093.06;5081827;28;20505;-86
2022/12/30 04:44:21;;;;;;;1999.90;999.90;;;;;;;8.66;100.00;98090.59;5080652;28;20029;-83
2022/12/30 04:46:47;;;;;;;1999.90;999.90;;;;;;;8.72;100.00;98099.56;5079002;28;20020;-85
2022/12/30 04:49:12;;;;;;;1999.90;999.90;;;;;;;8.76;100.00;98098.75;5080060;28;20067;-83
2022/12/30 04:51:37;;;;;;;1999.90;999.90;;;;;;;8.77;100.00;98105.03;5081063;28;20028;-86
2022/12/30 04:54:03;;;;;;;1999.90;999.90;;;;;;;8.79;100.00;98105.53;5080221;28;20027;-85
2022/12/30 04:56:28;;;;;;;1999.90;999.90;;;;;;;8.79;100.00;98102.81;5081303;28;20032;-80
2022/12/30 04:58:54;;;;;;;1999.90;999.90;;;;;;;8.77;100.00;98110.47;5081345;28;20028;-83
2022/12/30 05:01:19;;;;;;;1999.90;999.90;;;;;;;8.75;100.00;98109.91;5079531;28;20032;-81
2022/12/30 05:03:45;;;;;;;1999.90;999.90;;;;;;;8.73;100.00;98101.22;5077243;28;20024;-83
2022/12/30 05:06:10;;;;;;;1999.90;999.90;;;;;;;8.78;100.00;98107.44;5076683;28;20048;-82
2022/12/30 05:08:35;;;;;;;1999.90;999.90;;;;;;;8.76;100.00;98103.38;5075016;28;20028;-83
2022/12/30 05:11:01;;;;;;;1999.90;999.90;;;;;;;8.81;100.00;98108.78;5077638;28;20082;-87
2022/12/30 05:13:27;;;;;;;1999.90;999.90;;;;;;;8.88;100.00;98117.50;5077105;28;20049;-82
2022/12/30 05:15:53;;;;;;;1999.90;999.90;;;;;;;8.95;100.00;98115.28;5077711;28;20032;-83
2022/12/30 05:18:18;;;;;;;1999.90;999.90;;;;;;;8.97;100.00;98115.81;5079412;28;20119;-86
2022/12/30 05:20:43;;;;;;;1999.90;999.90;;;;;;;8.93;100.00;98114.72;5078982;28;20470;-83
2022/12/30 05:26:13;;;;;;;1999.90;999.90;;;;;;;8.94;100.00;98116.38;5080678;28;20469;-88
2022/12/30 05:28:38;;;;;;;1999.90;999.90;;;;;;;9.01;100.00;98127.81;5079403;28;20090;-85
2022/12/30 05:31:03;;;;;;;1999.90;999.90;;;;;;;9.07;100.00;98121.22;5078675;28;20024;-83
2022/12/30 05:33:29;;;;;;;1999.90;999.90;;;;;;;9.05;100.00;98118.75;5078927;28;20067;-85
2022/12/30 05:35:54;;;;;;;1999.90;999.90;;;;;;;8.94;100.00;98127.28;5077094;28;20038;-85
2022/12/30 05:38:19;;;;;;;1999.90;999.90;;;;;;;8.88;100.00;98131.13;5077916;28;20031;-84
2022/12/30 05:40:44;;;;;;;1999.90;999.90;;;;;;;8.84;100.00;98135.50;5077933;28;20024;-82
2022/12/30 05:43:11;;;;;;;1999.90;999.90;;;;;;;8.70;100.00;98131.78;5078329;28;20039;-84
2022/12/30 05:45:36;;;;;;;1999.90;999.90;;;;;;;8.71;100.00;98134.19;5077457;28;20016;-86
2022/12/30 05:48:02;;;;;;;1999.90;999.90;;;;;;;8.61;100.00;98131.53;5077449;28;20058;-85
2022/12/30 05:50:27;;;;;;;1999.90;999.90;;;;;;;8.66;100.00;98119.78;5079820;28;20032;-84
2022/12/30 05:52:52;;;;;;;1999.90;999.90;;;;;;;8.59;100.00;98115.44;5081920;28;20032;-84
2022/12/30 05:55:18;;;;;;;1999.90;999.90;;;;;;;8.63;100.00;98123.88;5079981;28;20029;-86
2022/12/30 05:57:43;;;;;;;1999.90;999.90;;;;;;;8.59;100.00;98123.63;5081760;28;20035;-87
2022/12/30 06:00:09;;;;;;;1999.90;999.90;;;;;;;8.64;100.00;98130.16;5078944;28;20413;-82
2022/12/30 06:02:34;;;;;;;1999.90;999.90;;;;;;;8.63;100.00;98117.59;5080642;28;20051;-85
2022/12/30 06:04:59;;;;;;;1999.90;999.90;;;;;;;8.69;100.00;98130.13;5079476;28;20016;-83
2022/12/30 06:07:25;;;;;;;1999.90;999.90;;;;;;;8.63;100.00;98136.69;5078244;28;20056;-86
2022/12/30 06:09:50;;;;;;;1999.90;999.90;;;;;;;8.74;100.00;98146.50;5079415;28;20036;-87
2022/12/30 06:12:15;;;;;;;1999.90;999.90;;;;;;;8.77;100.00;98154.09;5079958;28;20036;-84
2022/12/30 06:14:41;;;;;;;1999.90;999.90;;;;;;;8.66;100.00;98136.13;5079100;28;20080;-86
2022/12/30 06:17:06;;;;;;;1999.90;999.90;;;;;;;8.76;100.00;98150.56;5078072;28;20032;-86
2022/12/30 06:19:31;;;;;;;1999.90;999.90;;;;;;;8.63;100.00;98151.16;5085103;28;20038;-83
2022/12/30 06:21:57;;;;;;;1999.90;999.90;;;;;;;8.53;100.00;98154.72;5084611;28;20039;-81
2022/12/30 06:24:22;;;;;;;1999.90;999.90;;;;;;;8.48;100.00;98151.19;5085167;28;20017;-85
2022/12/30 06:26:47;;;;;;;1999.90;999.90;;;;;;;8.40;100.00;98154.47;5086508;28;20044;-82
2022/12/30 06:29:13;;;;;;;1999.90;999.90;;;;;;;8.35;100.00;98141.69;5080952;28;20032;-81
2022/12/30 06:31:38;;;;;;;1999.90;999.90;;;;;;;8.38;100.00;98160.22;5073111;28;20044;-85
2022/12/30 06:34:03;;;;;;;1999.90;999.90;;;;;;;8.28;100.00;98160.22;5073172;28;20021;-82
2022/12/30 06:36:29;;;;;;;1999.90;999.90;;;;;;;8.27;100.00;98166.72;5069624;28;20037;-86
2022/12/30 06:38:54;;;;;;;1999.90;999.90;;;;;;;8.24;100.00;98171.94;5104471;28;20021;-86
2022/12/30 06:41:19;;;;;;;1999.90;999.90;;;;;;;8.20;100.00;98168.94;5077054;28;20021;-85
2022/12/30 06:43:44;;;;;;;1999.90;999.90;;;;;;;8.18;100.00;98176.56;5093096;28;20027;-84
2022/12/30 06:46:10;;;;;;;1999.90;999.90;;;;;;;8.26;100.00;98170.56;5090357;28;20009;-84
2022/12/30 06:48:35;;;;;;;1999.90;999.90;;;;;;;8.12;100.00;98185.00;5088999;28;20043;-84
2022/12/30 06:51:02;;;;;;;1999.90;999.90;;;;;;;8.15;100.00;98189.91;5084363;28;20025;-83
2022/12/30 06:53:28;;;;;;;1999.90;999.90;;;;;;;8.14;100.00;98189.13;5079389;28;20476;-84
2022/12/30 06:55:53;;;;;;;1999.90;999.90;;;;;;;8.12;100.00;98194.00;5085892;28;20035;-85
2022/12/30 06:58:19;;;;;;;1999.90;999.90;;;;;;;8.21;100.00;98189.63;5089517;28;20048;-82
2022/12/30 07:00:44;;;;;;;1999.90;999.90;;;;;;;8.19;100.00;98191.00;5088267;28;20085;-83
2022/12/30 07:03:11;;;;;;;1999.90;999.90;;;;;;;8.23;100.00;98203.81;5089896;28;20059;-81
2022/12/30 07:05:36;;;;;;;1999.90;999.90;;;;;;;8.14;100.00;98204.63;5085192;28;20032;-83
2022/12/30 07:08:02;;;;;;;1999.90;999.90;;;;;;;8.07;100.00;98194.00;5081568;28;20098;-85
2022/12/30 07:10:27;;;;;;;1999.90;999.90;;;;;;;8.20;100.00;98195.38;5082398;28;20020;-82
2022/12/30 07:12:52;;;;;;;1999.90;999.90;;;;;;;8.25;100.00;98198.91;5082477;28;20032;-88
2022/12/30 07:15:18;;;;;;;1999.90;999.90;;;;;;;8.22;100.00;98194.00;5081558;28;20024;-86
2022/12/30 07:17:43;;;;;;;1999.90;999.90;;;;;;;8.31;100.00;98206.00;5082709;28;20414;-78
2022/12/30 07:20:09;;;;;;;1999.90;999.90;;;;;;;8.33;100.00;98203.03;5084225;28;20031;-84
2022/12/30 07:22:34;;;;;;;1999.90;999.90;;;;;;;8.31;100.00;98208.72;5080990;28;20024;-84
2022/12/30 07:25:00;;;;;;;1999.90;999.90;;;;;;;8.35;100.00;98218.00;5080163;28;20035;-77
2022/12/30 07:27:25;;;;;;;1999.90;999.90;;;;;;;8.33;100.00;98214.72;5071997;28;20120;-78
2022/12/30 07:29:50;;;;;;;1999.90;999.90;;;;;;;8.51;100.00;98219.63;5073680;28;20043;-77
2022/12/30 07:32:16;;;;;;;1999.90;999.90;;;;;;;8.68;100.00;98219.28;5077316;28;20063;-76
2022/12/30 07:34:41;;;;;;;1999.90;999.90;;;;;;;8.99;100.00;98229.00;5074088;28;20127;-76
2022/12/30 07:37:07;;;;;;;1999.90;999.90;;;;;;;9.06;100.00;98223.25;5073048;28;20021;-78
2022/12/30 07:39:32;;;;;;;1999.90;999.90;;;;;;;9.05;100.00;98227.09;5073261;28;20028;-76
2022/12/30 07:41:59;;;;;;;1999.90;999.90;;;;;;;9.09;100.00;98228.97;5079461;28;20020;-75
2022/12/30 07:44:24;;;;;;;1999.90;999.90;;;;;;;9.10;100.00;98222.44;5071780;28;20090;-76
2022/12/30 07:46:50;;;;;;;1999.90;999.90;;;;;;;9.12;100.00;98227.59;5072882;28;20470;-83
2022/12/30 07:49:16;;;;;;;1999.90;999.90;;;;;;;9.12;100.00;98224.88;5072875;28;21548;-77
2022/12/30 07:51:41;;;;;;;1999.90;999.90;;;;;;;8.90;100.00;98208.84;5071308;28;20031;-76
2022/12/30 07:54:06;;;;;;;1999.90;999.90;;;;;;;8.86;100.00;98228.81;5071744;28;20032;-76
2022/12/30 07:56:32;;;;;;;1999.90;999.90;;;;;;;8.99;100.00;98233.69;5072661;28;20029;-78
2022/12/30 07:58:58;;;;;;;1999.90;999.90;;;;;;;8.71;100.00;98237.03;5073142;28;20013;-75
2022/12/30 08:01:25;;;;;;;1999.90;999.90;;;;;;;8.67;100.00;98235.94;5073416;28;20028;-75
2022/12/30 08:03:51;;;;;;;1999.90;999.90;;;;;;;8.59;100.00;98240.84;5073147;28;20050;-76
2022/12/30 08:06:18;;;;;;;1999.90;999.90;;;;;;;8.61;100.00;98252.28;5073454;28;20045;-77
2022/12/30 08:08:44;;;;;;;1999.90;999.90;;;;;;;8.58;100.00;98249.31;5073191;28;20051;-74
2022/12/30 08:11:12;;;;;;;1999.90;999.90;;;;;;;8.71;100.00;98253.41;5071524;28;20024;-76
2022/12/30 08:13:39;;;;;;;1999.90;999.90;;;;;;;8.69;100.00;98250.09;5072534;28;20044;-75
2022/12/30 08:16:06;;;;;;;1999.90;999.90;;;;;;;8.79;100.00;98255.53;5072750;28;20048;-75
2022/12/30 08:18:32;;;;;;;1999.90;999.90;;;;;;;8.94;100.00;98264.50;5074173;28;20474;-75
2022/12/30 08:21:09;;;;;;;1999.90;999.90;;;;;;;8.94;100.00;98264.50;5073657;28;20027;-83
2022/12/30 08:23:34;;;;;;;1999.90;999.90;;;;;;;9.08;100.00;98271.00;5074426;28;20097;-78
2022/12/30 08:26:08;;;;;;;1999.90;999.90;;;;;;;9.20;100.00;98276.16;5074891;28;20083;-78
2022/12/30 08:28:34;;;;;;;1999.90;999.90;;;;;;;9.28;100.00;98280.22;5074758;28;20062;-82
2022/12/30 08:31:04;;;;;;;1999.90;999.90;;;;;;;9.19;100.00;98292.81;5075552;28;20033;-84
2022/12/30 08:33:30;;;;;;;1999.90;999.90;;;;;;;9.04;100.00;98291.75;5075277;28;20444;-79
2022/12/30 08:36:01;;;;;;;1999.90;999.90;;;;;;;8.93;100.00;98300.22;5074123;28;20021;-82
2022/12/30 08:38:26;;;;;;;1999.90;999.90;;;;;;;8.90;100.00;98300.78;5074393;28;20025;-80
2022/12/30 08:40:52;;;;;;;1999.90;999.90;;;;;;;8.94;100.00;98301.88;5074800;28;20474;-81
2022/12/30 08:43:18;;;;;;;1999.90;999.90;;;;;;;9.06;100.00;98294.19;5073347;28;20032;-80
2022/12/30 08:45:44;;;;;;;1999.90;999.90;;;;;;;9.41;100.00;98313.19;5075277;28;20058;-81
2022/12/30 08:48:09;;;;;;;1999.90;999.90;;;;;;;9.42;100.00;98303.94;5075272;28;20040;-82
2022/12/30 08:50:34;;;;;;;1999.90;999.90;;;;;;;9.54;100.00;98309.88;5077486;28;20036;-84
2022/12/30 08:53:00;;;;;;;1999.90;999.90;;;;;;;9.68;100.00;98318.25;5076668;28;20081;-82
2022/12/30 08:55:27;;;;;;;1999.90;999.90;;;;;;;9.82;100.00;98329.41;5076034;28;20033;-79
2022/12/30 08:57:52;;;;;;;1999.90;999.90;;;;;;;9.74;100.00;98324.53;5076047;28;20044;-85
2022/12/30 09:00:19;;;;;;;1999.90;999.90;;;;;;;9.90;100.00;98340.56;5075273;28;20412;-83
2022/12/30 09:02:44;;;;;;;1999.90;999.90;;;;;;;10.01;100.00;98342.16;5077987;28;20099;-85
2022/12/30 09:05:09;;;;;;;1999.90;999.90;;;;;;;9.95;100.00;98334.25;5072434;28;20119;-84
2022/12/30 09:07:35;;;;;;;1999.90;999.90;;;;;;;9.96;100.00;98338.63;5073639;28;20516;-80
2022/12/30 09:10:00;;;;;;;1999.90;999.90;;;;;;;9.89;100.00;98332.66;5077349;28;20013;-85
2022/12/30 09:12:25;;;;;;;1999.90;999.90;;;;;;;9.96;100.00;98344.88;5073335;28;20515;-86
2022/12/30 09:14:51;;;;;;;1999.90;999.90;;;;;;;9.95;100.00;98346.00;5073280;28;20806;-79
2022/12/30 09:17:16;;;;;;;1999.90;999.90;;;;;;;9.91;100.00;98347.66;5073218;28;20024;-80
2022/12/30 09:19:41;;;;;;;1999.90;999.90;;;;;;;9.64;100.00;98350.81;5064656;28;20017;-77
2022/12/30 09:22:06;;;;;;;1999.90;999.90;;;;;;;9.48;100.00;98345.66;5069053;28;20033;-82
2022/12/30 09:24:32;;;;;;;1999.90;999.90;;;;;;;9.25;100.00;98357.19;5073252;28;20047;-80
2022/12/30 09:26:57;;;;;;;1999.90;999.90;;;;;;;9.33;100.00;98349.28;5073157;28;20047;-80
2022/12/30 09:29:22;;;;;;;1999.90;999.90;;;;;;;9.21;100.00;98342.50;5077832;28;20374;-75
2022/12/30 09:31:48;;;;;;;1999.90;999.90;;;;;;;9.39;100.00;98345.44;5070835;28;20132;-77
2022/12/30 09:34:13;;;;;;;1999.90;999.90;;;;;;;9.22;100.00;98341.38;5071604;28;20028;-75
2022/12/30 09:36:38;;;;;;;1999.90;999.90;;;;;;;9.51;100.00;98348.66;5068684;28;20020;-74
2022/12/30 09:39:04;;;;;;;1999.90;999.90;;;;;;;9.44;100.00;98345.41;5070634;28;20123;-78
2022/12/30 09:45:02;;;;;;;1999.90;999.90;;;;;;;9.41;100.00;98353.34;5069999;28;20032;-76
2022/12/30 09:47:33;;;;;;;1999.90;999.90;;;;;;;9.43;100.00;98351.94;5051885;28;20032;-82
2022/12/30 09:50:11;;;;;;;1999.90;999.90;;;;;;;9.41;100.00;98351.41;5052860;28;20025;-76
2022/12/30 09:52:51;;;;;;;1999.90;999.90;;;;;;;9.45;100.00;98354.41;5053757;28;20058;-79
2022/12/30 09:55:22;;;;;;;1999.90;999.90;;;;;;;9.58;100.00;98349.19;5069881;28;20599;-76
2022/12/30 09:57:54;;;;;;;1999.90;999.90;;;;;;;9.73;100.00;98348.31;5067605;28;20091;-76
2022/12/30 10:00:22;;;;;;;1999.90;999.90;;;;;;;9.83;100.00;98336.50;5072625;28;20032;-77
2022/12/30 10:02:58;;;;;;;1999.90;999.90;;;;;;;10.07;100.00;98353.84;5071275;28;20028;-81
2022/12/30 10:05:59;;;;;;;1999.90;999.90;;;;;;;10.29;100.00;98351.56;5070817;28;20028;-77
2022/12/30 10:08:29;;;;;;;1999.90;999.90;;;;;;;10.31;100.00;98349.34;5075685;28;20044;-82
2022/12/30 10:11:31;;;;;;;1999.90;999.90;;;;;;;10.37;100.00;98347.44;5070303;28;20025;-78
2022/12/30 10:14:26;;;;;;;1999.90;999.90;;;;;;;10.35;100.00;98342.22;5061274;28;20025;-75
2022/12/30 10:17:06;;;;;;;1999.90;999.90;;;;;;;10.43;100.00;98338.88;5078472;28;20025;-80
2022/12/30 10:19:59;;;;;;;1999.90;999.90;;;;;;;10.43;100.00;98332.63;5068252;28;20028;-76
2022/12/30 10:22:36;;;;;;;1999.90;999.90;;;;;;;10.46;100.00;98341.03;5066884;28;20025;-75
2022/12/30 10:25:20;;;;;;;1999.90;999.90;;;;;;;10.55;100.00;98344.84;5068717;28;20028;-80
2022/12/30 10:27:48;;;;;;;1999.90;999.90;;;;;;;10.56;100.00;98343.72;5067416;28;20405;-78
2022/12/30 10:30:18;;;;;;;1999.90;999.90;;;;;;;10.60;100.00;98338.47;5069955;28;20103;-77
2022/12/30 10:32:50;;;;;;;1999.90;999.90;;;;;;;10.48;100.00;98338.84;5069212;28;20409;-77
2022/12/30 10:35:23;;;;;;;1999.90;999.90;;;;;;;10.52;100.00;98339.94;5070514;28;20021;-76
2022/12/30 10:37:56;;;;;;;1999.90;999.90;;;;;;;10.47;100.00;98336.38;5078197;28;20708;-80
2022/12/30 10:40:24;;;;;;;1999.90;999.90;;;;;;;10.32;100.00;98329.13;5083070;28;20113;-87
2022/12/30 10:42:56;;;;;;;1999.90;999.90;;;;;;;10.43;100.00;98329.88;5076037;28;20397;-81
2022/12/30 10:45:56;;;;;;;1999.90;999.90;;;;;;;10.38;100.00;98329.91;5074360;28;20482;-76
2022/12/30 10:48:39;;;;;;;1999.90;999.90;;;;;;;10.34;100.00;98328.84;5067708;28;20086;-76
2022/12/30 10:51:05;;;;;;;1999.90;999.90;;;;;;;10.37;100.00;98329.06;5069358;28;20041;-83
2022/12/30 10:53:31;;;;;;;1999.90;999.90;;;;;;;10.32;100.00;98333.78;5073581;28;20093;-83
2022/12/30 10:56:00;;;;;;;1999.90;999.90;;;;;;;10.25;100.00;98331.34;5078924;28;20147;-78
2022/12/30 10:58:47;;;;;;;1999.90;999.90;;;;;;;10.17;100.00;98318.31;5072731;28;20032;-78
2022/12/30 11:01:18;;;;;;;1999.90;999.90;;;;;;;10.03;100.00;98326.28;5082489;28;20098;-79
2022/12/30 11:03:53;;;;;;;1999.90;999.90;;;;;;;9.84;100.00;98321.72;5074450;28;20032;-81
2022/12/30 11:06:25;;;;;;;1999.90;999.90;;;;;;;9.84;100.00;98324.47;5069705;28;20060;-78
2022/12/30 11:08:52;;;;;;;1999.90;999.90;;;;;;;9.84;100.00;98322.56;5071484;28;20304;-77
2022/12/30 11:11:18;;;;;;;1999.90;999.90;;;;;;;9.85;100.00;98324.19;5084701;28;20024;-76
2022/12/30 11:16:41;;;;;;;1999.90;999.90;;;;;;;9.90;100.00;98313.22;5083042;28;20043;-75
2022/12/30 11:19:21;;;;;;;1999.90;999.90;;;;;;;9.82;100.00;98319.28;5090539;28;20012;-76
2022/12/30 11:21:46;;;;;;;1999.90;999.90;;;;;;;9.86;100.00;98308.63;5074791;28;20063;-77
2022/12/30 11:24:15;;;;;;;1999.90;999.90;;;;;;;9.88;100.00;98306.41;5073450;28;20104;-76
2022/12/30 11:26:46;;;;;;;1999.90;999.90;;;;;;;9.80;100.00;98293.38;5087349;28;20477;-75
2022/12/30 11:29:17;;;;;;;1999.90;999.90;;;;;;;9.87;100.00;98302.03;5068690;28;20123;-75
2022/12/30 11:31:47;;;;;;;1999.90;999.90;;;;;;;9.89;100.00;98299.88;5085753;28;20028;-75
2022/12/30 11:34:37;;;;;;;1999.90;999.90;;;;;;;9.98;100.00;98307.19;5082632;28;20118;-77
2022/12/30 11:37:34;;;;;;;1999.90;999.90;;;;;;;9.96;100.00;98297.66;5089672;28;20072;-75
2022/12/30 11:40:30;;;;;;;1999.90;999.90;;;;;;;9.89;100.00;98303.41;5076442;28;20047;-75
2022/12/30 11:43:09;;;;;;;1999.90;999.90;;;;;;;9.80;100.00;98305.13;5089423;28;20035;-76
2022/12/30 11:45:34;;;;;;;1999.90;999.90;;;;;;;9.80;100.00;98298.81;5076273;28;20032;-77
2022/12/30 11:48:00;;;;;;;1999.90;999.90;;;;;;;9.78;100.00;98299.09;5095038;28;20031;-79
2022/12/30 11:50:25;;;;;;;1999.90;999.90;;;;;;;9.76;100.00;98298.56;5081165;28;20374;-75
2022/12/30 11:52:56;;;;;;;1999.90;999.90;;;;;;;9.65;100.00;98292.34;5070180;28;20504;-76
2022/12/30 11:55:24;;;;;;;1999.90;999.90;;;;;;;9.69;100.00;98301.59;5087538;28;20052;-76
2022/12/30 11:57:53;;;;;;;1999.90;999.90;;;;;;;9.74;100.00;98292.59;5077695;28;20016;-77
2022/12/30 12:00:19;;;;;;;1999.90;999.90;;;;;;;9.78;100.00;98281.88;5077248;28;20070;-76
2022/12/30 12:02:50;;;;;;;1999.90;999.90;;;;;;;9.85;100.00;98279.66;5083625;28;20016;-76